.
WxDataArchive / Data Records for 2007-11-06
2007-11-05 November 2007 2007-11-07

Data Records for Tuesday, 06 November 2007

Time	Temp	Chill	HIndex	Humid	Dewpt	 Wind 	HiWind	WindDir	Rain 	Barom 
-----	----	-----	------	-----	-----	------	------	-------	-----	----- 
00:00	38.0	38.0	38.0	70	29.1	1	3	248	0.00	29.811 
00:05	37.9	37.9	37.9	70	29.0	1	2	270	0.00	29.810 
00:10	37.8	37.8	37.8	70	28.9	0	1	248	0.00	29.812 
00:15	37.8	37.8	37.8	70	28.9	1	3	248	0.00	29.813 
00:20	37.8	37.8	37.8	69	28.6	0	2	248	0.00	29.813 
00:25	37.8	37.8	37.8	69	28.6	1	4	248	0.00	29.814 
00:30	37.6	37.6	37.6	69	28.4	1	3	270	0.00	29.814 
00:35	37.6	37.6	37.6	70	28.7	1	2	270	0.00	29.815 
00:40	37.5	37.5	37.5	70	28.6	0	2	270	0.00	29.820 
00:45	37.3	37.3	37.3	71	28.8	1	3	270	0.00	29.826 
00:50	37.3	37.3	37.3	71	28.8	1	3	270	0.00	29.829 
00:55	37.3	37.3	37.3	71	28.8	2	6	270	0.00	29.829 
01:00	37.3	37.3	37.3	72	29.1	2	5	292	0.00	29.830 
01:05	37.0	37.0	37.0	73	29.2	1	4	270	0.00	29.830 
01:10	36.9	36.9	36.9	74	29.4	1	3	315	0.00	29.831 
01:15	36.6	36.6	36.6	76	29.8	2	5	270	0.00	29.832 
01:20	36.5	36.5	36.5	78	30.3	2	6	315	0.00	29.833 
01:25	36.3	36.3	36.3	79	30.4	2	5	315	0.00	29.833 
01:30	36.2	36.2	36.2	79	30.3	2	9	315	0.00	29.833 
01:35	36.0	36.0	36.0	80	30.4	1	5	315	0.00	29.830 
01:40	35.9	35.9	35.9	80	30.3	1	5	248	0.00	29.827 
01:45	35.9	35.9	35.9	79	30.0	2	4	270	0.00	29.825 
01:50	36.0	36.0	36.0	80	30.4	1	4	270	0.00	29.825 
01:55	36.0	36.0	36.0	79	30.1	2	5	248	0.00	29.826 
02:00	35.9	35.9	35.9	79	30.0	1	4	248	0.00	29.829 
02:05	35.9	35.9	35.9	79	30.0	3	6	248	0.00	29.833 
02:10	36.2	36.2	36.2	78	30.0	3	9	248	0.00	29.837 
02:15	36.3	36.3	36.3	77	29.8	3	10	270	0.00	29.838 
02:20	35.9	35.9	35.9	79	30.0	2	6	270	0.00	29.832 
02:25	35.9	35.9	35.9	79	30.0	3	5	270	0.00	29.834 
02:30	36.0	36.0	36.0	78	29.8	3	6	270	0.00	29.841 
02:35	36.3	36.3	36.3	77	29.8	3	9	292	0.00	29.844 
02:40	36.3	36.3	36.3	76	29.5	3	7	292	0.00	29.845 
02:45	36.3	36.3	36.3	76	29.5	3	5	315	0.00	29.842 
02:50	36.2	36.2	36.2	76	29.4	3	5	270	0.00	29.840 
02:55	36.0	36.0	36.0	77	29.5	3	6	270	0.00	29.836 
03:00	36.0	36.0	36.0	77	29.5	3	5	270	0.00	29.832 
03:05	35.9	35.9	35.9	77	29.4	3	7	270	0.00	29.837 
03:10	35.6	35.6	35.6	77	29.1	3	9	248	0.00	29.837 
03:15	35.2	35.2	35.2	78	29.0	2	9	248	0.00	29.836 
03:20	34.9	34.9	34.9	80	29.4	2	5	248	0.00	29.836 
03:25	34.9	34.9	34.9	81	29.7	2	6	248	0.00	29.836 
03:30	34.7	34.7	34.7	81	29.5	2	4	270	0.00	29.837 
03:35	34.7	34.7	34.7	81	29.5	2	7	270	0.00	29.838 
03:40	34.9	34.9	34.9	80	29.4	3	6	270	0.00	29.839 
03:45	34.7	34.7	34.7	79	28.9	3	7	270	0.00	29.840 
03:50	34.7	34.7	34.7	78	28.6	3	12	270	0.00	29.842 
03:55	34.6	34.6	34.6	78	28.5	3	7	270	0.00	29.842 
04:00	34.4	30.8	34.4	78	28.3	4	11	248	0.00	29.847 
04:05	34.3	34.3	34.3	78	28.2	3	10	248	0.00	29.844 
04:10	34.3	34.3	34.3	78	28.2	3	7	248	0.00	29.847 
04:15	34.3	34.3	34.3	78	28.2	2	7	248	0.00	29.849 
04:20	34.4	34.4	34.4	77	27.9	3	7	248	0.00	29.851 
04:25	34.4	34.4	34.4	78	28.3	2	6	270	0.00	29.850 
04:30	34.4	34.4	34.4	77	27.9	3	5	248	0.00	29.854 
04:35	34.6	34.6	34.6	77	28.1	2	4	248	0.00	29.850 
04:40	34.7	34.7	34.7	77	28.2	3	6	270	0.00	29.852 
04:45	34.9	34.9	34.9	76	28.1	3	10	270	0.00	29.852 
04:50	34.9	34.9	34.9	75	27.8	3	6	270	0.00	29.854 
04:55	35.0	35.0	35.0	74	27.6	2	6	248	0.00	29.852 
05:00	35.0	35.0	35.0	73	27.2	3	6	270	0.00	29.850 
05:05	35.0	35.0	35.0	72	26.9	3	10	270	0.00	29.852 
05:10	35.2	31.8	35.2	71	26.8	4	12	248	0.00	29.852 
05:15	35.2	35.2	35.2	71	26.8	3	8	248	0.00	29.851 
05:20	35.3	31.9	35.3	69	26.2	4	9	270	0.00	29.856 
05:25	35.3	31.9	35.3	69	26.2	4	11	270	0.00	29.858 
05:30	35.3	35.3	35.3	69	26.2	2	9	270	0.00	29.858 
05:35	35.3	35.3	35.3	69	26.2	3	6	248	0.00	29.857 
05:40	35.3	35.3	35.3	68	25.8	3	7	270	0.00	29.857 
05:45	35.3	31.9	35.3	68	25.8	4	10	270	0.00	29.857 
05:50	35.5	35.5	35.5	67	25.6	3	10	270	0.00	29.857 
05:55	35.5	32.1	35.5	67	25.6	4	13	270	0.00	29.856 
06:00	35.5	31.2	35.5	66	25.3	5	14	248	0.00	29.859 
06:05	35.5	32.1	35.5	66	25.3	4	14	270	0.00	29.860 
06:10	35.5	32.1	35.5	65	24.9	4	10	270	0.00	29.861 
06:15	35.5	35.5	35.5	65	24.9	3	10	270	0.00	29.862 
06:20	35.3	31.9	35.3	65	24.7	4	11	270	0.00	29.861 
06:25	35.2	31.8	35.2	65	24.6	4	9	270	0.00	29.861 
06:30	34.9	34.9	34.9	65	24.3	2	9	270	0.00	29.866 
06:35	34.9	31.4	34.9	65	24.3	4	10	270	0.00	29.868 
06:40	34.7	34.7	34.7	65	24.2	3	11	248	0.00	29.869 
06:45	34.6	34.6	34.6	66	24.4	3	7	270	0.00	29.872 
06:50	34.6	31.1	34.6	66	24.4	4	10	270	0.00	29.874 
06:55	34.6	34.6	34.6	66	24.4	3	10	248	0.00	29.875 
07:00	34.6	31.1	34.6	66	24.4	4	11	248	0.00	29.875 
07:05	34.4	30.8	34.4	66	24.2	4	9	270	0.00	29.879 
07:10	34.4	29.9	34.4	66	24.2	5	14	270	0.00	29.879 
07:15	34.4	30.8	34.4	66	24.2	4	11	270	0.00	29.879 
07:20	34.3	34.3	34.3	67	24.5	3	11	248	0.00	29.881 
07:25	34.1	30.5	34.1	67	24.3	4	11	270	0.00	29.882 
07:30	34.1	30.5	34.1	67	24.3	4	14	248	0.00	29.886 
07:35	34.1	34.1	34.1	68	24.7	3	11	270	0.00	29.888 
07:40	34.1	34.1	34.1	68	24.7	3	7	270	0.00	29.889 
07:45	34.3	30.7	34.3	68	24.9	4	15	270	0.00	29.892 
07:50	34.3	30.7	34.3	68	24.9	4	11	270	0.00	29.893 
07:55	34.3	29.8	34.3	68	24.9	5	12	270	0.00	29.893 
08:00	34.4	34.4	34.4	68	24.9	3	9	270	0.00	29.895 
08:05	34.4	29.9	34.4	68	24.9	5	11	270	0.00	29.896 
08:10	34.4	29.9	34.4	68	24.9	5	14	248	0.00	29.896 
08:15	34.4	29.1	34.4	68	24.9	6	20	270	0.00	29.897 
08:20	34.4	30.8	34.4	69	25.3	4	13	270	0.00	29.902 
08:25	34.6	30.1	34.6	68	25.1	5	13	270	0.00	29.902 
08:30	34.6	31.1	34.6	69	25.5	4	14	270	0.00	29.902 
08:35	34.6	31.1	34.6	69	25.5	4	13	248	0.00	29.901 
08:40	34.7	30.2	34.7	69	25.6	5	13	248	0.00	29.903 
08:45	34.7	34.7	34.7	69	25.6	3	11	248	0.00	29.901 
08:50	34.9	30.5	34.9	69	25.8	5	14	248	0.00	29.908 
08:55	35.2	30.8	35.2	68	25.7	5	15	248	0.00	29.909 
09:00	35.5	30.4	35.5	68	26.0	6	13	270	0.00	29.909 
09:05	35.5	30.4	35.5	67	25.6	6	12	270	0.00	29.907 
09:10	35.6	31.3	35.6	67	25.7	5	11	270	0.00	29.907 
09:15	36.0	32.7	36.0	67	26.1	4	9	270	0.00	29.912 
09:20	36.2	32.0	36.2	65	25.6	5	14	270	0.00	29.913 
09:25	36.5	32.4	36.5	66	26.2	5	14	270	0.00	29.917 
09:30	36.5	30.9	36.5	65	25.9	7	16	270	0.00	29.913 
09:35	36.8	32.7	36.8	65	26.2	5	15	270	0.00	29.918 
09:40	37.2	34.1	37.2	65	26.5	4	11	270	0.00	29.922 
09:45	37.2	33.2	37.2	64	26.2	5	16	270	0.00	29.923 
09:50	37.8	34.8	37.8	64	26.7	4	11	270	0.00	29.926 
09:55	37.6	33.7	37.6	64	26.5	5	12	270	0.00	29.929 
10:00	37.5	34.4	37.5	65	26.8	4	14	270	0.00	29.934 
10:05	37.2	33.2	37.2	65	26.5	5	11	270	0.00	29.938 
10:10	37.2	37.2	37.2	66	26.9	3	7	270	0.00	29.938 
10:15	37.0	33.9	37.0	67	27.1	4	11	270	0.00	29.938 
10:20	37.0	37.0	37.0	68	27.4	3	7	248	0.00	29.940 
10:25	37.2	34.1	37.2	68	27.6	4	12	270	0.00	29.940 
10:30	37.3	37.3	37.3	68	27.7	3	9	270	0.00	29.942 
10:35	37.3	34.2	37.3	68	27.7	4	12	270	0.00	29.941 
10:40	37.5	33.5	37.5	67	27.6	5	10	270	0.00	29.947 
10:45	37.6	34.5	37.6	67	27.7	4	6	270	0.00	29.951 
10:50	37.8	37.8	37.8	67	27.8	3	9	270	0.00	29.951 
10:55	38.0	38.0	38.0	65	27.3	3	7	248	0.00	29.953 
11:00	38.2	35.2	38.2	65	27.5	4	7	270	0.00	29.951 
11:05	38.3	35.4	38.3	64	27.2	4	7	270	0.00	29.954 
11:10	38.5	35.6	38.5	64	27.4	4	7	270	0.00	29.955 
11:15	38.5	34.7	38.5	64	27.4	5	12	270	0.00	29.958 
11:20	38.5	34.7	38.5	63	27.0	5	11	270	0.00	29.961 
11:25	38.5	34.7	38.5	64	27.4	5	13	270	0.00	29.965 
11:30	38.6	35.7	38.6	64	27.5	4	10	270	0.00	29.970 
11:35	38.8	35.9	38.8	65	28.1	4	15	270	0.00	29.968 
11:40	39.1	36.3	39.1	63	27.6	4	11	270	0.00	29.969 
11:45	39.1	36.3	39.1	63	27.6	4	9	270	0.00	29.970 
11:50	39.2	36.4	39.2	62	27.3	4	9	270	0.00	29.967 
11:55	39.3	35.7	39.3	62	27.4	5	13	270	0.00	29.970 
12:00	39.5	35.9	39.5	61	27.2	5	15	270	0.00	29.969 
12:05	39.3	35.7	39.3	62	27.4	5	11	270	0.00	29.972 
12:10	39.3	36.5	39.3	62	27.4	4	9	270	0.00	29.972 
12:15	39.3	36.5	39.3	62	27.4	4	8	270	0.00	29.972 
12:20	39.5	36.7	39.5	62	27.6	4	11	270	0.00	29.974 
12:25	39.5	39.5	39.5	63	28.0	3	7	270	0.00	29.979 
12:30	39.5	39.5	39.5	63	28.0	3	8	270	0.00	29.980 
12:35	39.6	36.9	39.6	63	28.1	4	11	270	0.00	29.982 
12:40	39.6	39.6	39.6	63	28.1	3	9	270	0.00	29.984 
12:45	39.6	36.9	39.6	63	28.1	4	14	270	0.00	29.987 
12:50	39.5	36.7	39.5	63	28.0	4	7	270	0.00	29.988 
12:55	39.5	35.9	39.5	64	28.3	5	10	270	0.00	29.987 
13:00	39.5	39.5	39.5	64	28.3	3	7	270	0.00	29.988 
13:05	39.6	36.9	39.6	64	28.4	4	9	270	0.00	29.988 
13:10	39.6	36.9	39.6	64	28.4	4	9	270	0.00	29.990 
13:15	39.5	36.7	39.5	65	28.7	4	12	270	0.00	29.994 
13:20	39.3	36.5	39.3	65	28.5	4	12	270	0.00	30.001 
13:25	39.2	39.2	39.2	66	28.8	3	7	270	0.00	30.001 
13:30	39.2	36.4	39.2	66	28.8	4	7	270	0.00	30.002 
13:35	39.2	36.4	39.2	66	28.8	4	11	270	0.00	30.004 
13:40	39.3	36.5	39.3	66	28.9	4	10	270	0.00	30.005 
13:45	39.3	39.3	39.3	66	28.9	3	10	270	0.00	30.006 
13:50	39.3	36.5	39.3	66	28.9	4	12	270	0.00	30.008 
13:55	39.5	39.5	39.5	66	29.1	3	8	270	0.00	30.008 
14:00	39.6	39.6	39.6	65	28.8	3	6	270	0.00	30.008 
14:05	39.8	39.8	39.8	65	29.0	3	6	270	0.00	30.009 
14:10	40.1	40.1	40.1	65	29.3	3	9	270	0.00	30.009 
14:15	40.1	40.1	40.1	65	29.3	3	6	270	0.00	30.013 
14:20	40.2	40.2	40.2	64	29.0	3	5	270	0.00	30.014 
14:25	40.3	37.7	40.3	62	28.3	4	10	270	0.00	30.016 
14:30	40.6	38.0	40.6	62	28.6	4	6	270	0.00	30.018 
14:35	40.6	40.6	40.6	62	28.6	3	7	270	0.00	30.019 
14:40	40.6	38.0	40.6	62	28.6	4	8	270	0.00	30.020 
14:45	40.6	40.6	40.6	62	28.6	3	8	315	0.00	30.020 
14:50	40.6	40.6	40.6	62	28.6	3	9	292	0.00	30.021 
14:55	40.6	38.0	40.6	62	28.6	4	15	270	0.00	30.025 
15:00	40.6	38.0	40.6	62	28.6	4	10	270	0.00	30.028 
15:05	40.5	40.5	40.5	64	29.3	3	6	270	0.00	30.033 
15:10	40.5	40.5	40.5	64	29.3	3	7	315	0.00	30.035 
15:15	40.3	37.7	40.3	64	29.1	4	9	315	0.00	30.037 
15:20	40.2	40.2	40.2	64	29.0	3	9	292	0.00	30.043 
15:25	40.1	37.4	40.1	65	29.3	4	9	270	0.00	30.046 
15:30	39.9	39.9	39.9	66	29.5	3	6	270	0.00	30.048 
15:35	39.9	39.9	39.9	66	29.5	3	7	270	0.00	30.051 
15:40	39.9	39.9	39.9	66	29.5	3	6	270	0.00	30.051 
15:45	39.9	37.2	39.9	66	29.5	4	13	270	0.00	30.052 
15:50	40.1	40.1	40.1	65	29.3	3	7	270	0.00	30.054 
15:55	40.1	40.1	40.1	66	29.7	3	6	270	0.00	30.058 
16:00	40.1	40.1	40.1	65	29.3	3	9	270	0.00	30.061 
16:05	40.1	40.1	40.1	65	29.3	3	6	270	0.00	30.064 
16:10	40.1	40.1	40.1	65	29.3	3	9	270	0.00	30.065 
16:15	40.2	37.5	40.2	65	29.4	4	6	270	0.00	30.067 
16:20	40.2	40.2	40.2	65	29.4	3	5	292	0.00	30.067 
16:25	40.2	40.2	40.2	65	29.4	3	6	270	0.00	30.069 
16:30	40.1	40.1	40.1	65	29.3	3	7	270	0.00	30.072 
16:35	40.1	40.1	40.1	66	29.7	3	7	270	0.00	30.078 
16:40	39.9	37.2	39.9	66	29.5	4	9	270	0.00	30.080 
16:45	39.8	37.1	39.8	67	29.8	4	6	270	0.00	30.082 
16:50	39.6	39.6	39.6	67	29.6	3	7	270	0.00	30.083 
16:55	39.6	39.6	39.6	68	29.9	3	7	270	0.00	30.083 
17:00	39.5	39.5	39.5	69	30.2	3	8	270	0.00	30.084 
17:05	39.3	39.3	39.3	69	30.0	3	8	270	0.00	30.086 
17:10	39.3	39.3	39.3	69	30.0	3	9	248	0.00	30.093 
17:15	39.2	39.2	39.2	69	29.9	3	6	292	0.00	30.095 
17:20	39.2	36.4	39.2	70	30.3	4	9	270	0.00	30.095 
17:25	39.2	39.2	39.2	70	30.3	3	5	270	0.00	30.096 
17:30	39.1	39.1	39.1	71	30.5	2	6	270	0.00	30.098 
17:35	39.1	39.1	39.1	71	30.5	3	6	270	0.00	30.099 
17:40	39.1	39.1	39.1	71	30.5	3	5	270	0.00	30.102 
17:45	39.1	39.1	39.1	71	30.5	3	7	270	0.00	30.101 
17:50	39.1	39.1	39.1	71	30.5	2	4	270	0.00	30.106 
17:55	39.1	39.1	39.1	71	30.5	3	6	270	0.00	30.105 
18:00	38.9	38.9	38.9	71	30.3	3	7	248	0.00	30.110 
18:05	39.1	39.1	39.1	71	30.5	3	6	270	0.00	30.113 
18:10	38.9	38.9	38.9	71	30.3	3	6	270	0.00	30.114 
18:15	39.1	39.1	39.1	71	30.5	3	5	315	0.00	30.116 
18:20	39.1	39.1	39.1	71	30.5	3	7	270	0.00	30.117 
18:25	39.1	39.1	39.1	71	30.5	3	7	248	0.00	30.121 
18:30	39.1	39.1	39.1	71	30.5	3	6	248	0.00	30.126 
18:35	39.1	39.1	39.1	71	30.5	3	8	270	0.00	30.130 
18:40	39.1	39.1	39.1	71	30.5	2	4	248	0.00	30.131 
18:45	39.1	39.1	39.1	71	30.5	3	7	270	0.00	30.132 
18:50	39.1	39.1	39.1	71	30.5	3	6	248	0.00	30.133 
18:55	39.1	39.1	39.1	71	30.5	3	5	270	0.00	30.133 
19:00	39.1	39.1	39.1	71	30.5	2	5	248	0.00	30.140 
19:05	39.1	39.1	39.1	71	30.5	2	4	270	0.00	30.145 
19:10	39.2	39.2	39.2	71	30.6	2	4	292	0.00	30.147 
19:15	39.2	39.2	39.2	70	30.3	2	5	270	0.00	30.147 
19:20	39.2	39.2	39.2	70	30.3	2	5	292	0.00	30.148 
19:25	39.2	39.2	39.2	70	30.3	3	6	270	0.00	30.149 
19:30	39.2	39.2	39.2	70	30.3	1	4	270	0.00	30.151 
19:35	39.2	39.2	39.2	70	30.3	1	4	292	0.00	30.155 
19:40	39.2	39.2	39.2	70	30.3	1	5	270	0.00	30.158 
19:45	39.2	39.2	39.2	70	30.3	2	4	270	0.00	30.157 
19:50	39.2	39.2	39.2	70	30.3	1	5	248	0.00	30.161 
19:55	39.3	39.3	39.3	70	30.3	2	3	315	0.00	30.161 
20:00	39.3	39.3	39.3	70	30.3	1	3	270	0.00	30.163 
20:05	39.3	39.3	39.3	71	30.7	0	3	270	0.00	30.161 
20:10	39.3	39.3	39.3	70	30.3	2	4	270	0.00	30.162 
20:15	39.3	39.3	39.3	70	30.3	1	4	248	0.00	30.163 
20:20	39.3	39.3	39.3	71	30.7	0	2	248	0.00	30.164 
20:25	39.3	39.3	39.3	70	30.3	1	3	248	0.00	30.164 
20:30	39.3	39.3	39.3	70	30.3	1	3	270	0.00	30.165 
20:35	39.3	39.3	39.3	70	30.3	1	3	248	0.00	30.166 
20:40	39.3	39.3	39.3	70	30.3	0	2	248	0.00	30.167 
20:45	39.2	39.2	39.2	70	30.3	1	3	248	0.00	30.169 
20:50	39.2	39.2	39.2	70	30.3	0	1	248	0.00	30.170 
20:55	39.2	39.2	39.2	70	30.3	0	2	248	0.00	30.170 
21:00	39.3	39.3	39.3	70	30.3	0	2	270	0.00	30.173 
21:05	39.3	39.3	39.3	70	30.3	0	2	292	0.00	30.172 
21:10	39.2	39.2	39.2	70	30.3	1	3	315	0.00	30.175 
21:15	39.3	39.3	39.3	70	30.3	1	4	248	0.00	30.175 
21:20	39.3	39.3	39.3	70	30.3	0	2	248	0.00	30.176 
21:25	39.3	39.3	39.3	70	30.3	0	1	248	0.00	30.177 
21:30	39.3	39.3	39.3	70	30.3	0	2	270	0.00	30.179 
21:35	39.3	39.3	39.3	70	30.3	0	3	270	0.00	30.181 
21:40	39.3	39.3	39.3	71	30.7	0	1	270	0.00	30.180 
21:45	39.3	39.3	39.3	71	30.7	0	1	270	0.00	30.184 
21:50	39.3	39.3	39.3	71	30.7	0	1	270	0.00	30.189 
21:55	39.3	39.3	39.3	70	30.3	0	2	270	0.00	30.191 
22:00	39.3	39.3	39.3	70	30.3	0	1	292	0.00	30.191 
22:05	39.3	39.3	39.3	70	30.3	0	3	248	0.00	30.192 
22:10	39.3	39.3	39.3	70	30.3	0	1	248	0.00	30.192 
22:15	39.3	39.3	39.3	70	30.3	0	1	248	0.00	30.193 
22:20	39.3	39.3	39.3	71	30.7	0	1	248	0.00	30.195 
22:25	39.3	39.3	39.3	70	30.3	0	1	248	0.00	30.195 
22:30	39.3	39.3	39.3	71	30.7	0	1	248	0.00	30.195 
22:35	39.3	39.3	39.3	71	30.7	0	1	248	0.00	30.197 
22:40	39.2	39.2	39.2	71	30.6	0	1	248	0.00	30.198 
22:45	39.2	39.2	39.2	72	30.9	0	0	---	0.00	30.197 
22:50	39.2	39.2	39.2	73	31.3	0	0	---	0.00	30.200 
22:55	39.1	39.1	39.1	73	31.2	0	1	248	0.00	30.198 
23:00	39.1	39.1	39.1	74	31.5	0	0	---	0.00	30.198 
23:05	38.9	38.9	38.9	75	31.7	0	0	---	0.00	30.196 
23:10	38.9	38.9	38.9	76	32.0	0	0	---	0.00	30.196 
23:15	38.8	38.8	38.8	77	32.2	0	0	---	0.00	30.194 
23:20	38.6	38.6	38.6	77	32.0	0	1	248	0.00	30.193 
23:25	38.6	38.6	38.6	77	32.0	0	1	248	0.00	30.195 
23:30	38.6	38.6	38.6	77	32.0	0	0	---	0.00	30.194 
23:35	38.6	38.6	38.6	78	32.3	0	0	---	0.00	30.194 
23:40	38.5	38.5	38.5	78	32.2	0	1	248	0.00	30.195 
23:45	38.5	38.5	38.5	79	32.6	0	1	248	0.00	30.196 
23:50	38.5	38.5	38.5	79	32.6	0	0	---	0.00	30.196 
23:55	38.5	38.5	38.5	80	32.9	0	1	248	0.00	30.199 

CoCoRaHS
IN-AL-39
A2 Web Hosting
Creative Commons License
GoDaddy
Look for:

loaded 2017-10-18 21:56:54 • last modified 2010-11-18 10:43:29
Privacy PolicyDisclaimer
• wx.awcolley.com is powered by PmWiki v.2002016 •
• all content (unless otherwise noted) © 2017 A W Colley